Friday, November 24, 2017, 5:34 AM GMT
Back to Local

CWOD, Normandin

Location: , , Canada Lat: 48.833
Local Time: 5:34 AM GMT ( 5:34 GMT) Lon: -72.55
Time Zone: GMT Elev: 449 ft

Show me the last for .
Show Coded

Time T Td Feel RH Dir Speed Gust Alt SLP Vis Weather Sky Remarks
2017-11-24 05:00 23 13 5 66 300° 23 31 - 29.66 0 Peak wind: 31 mph (27 kts) from 310° at 51 min
Pressure rising rapidly
2017-11-24 04:00 26 22 16 85 230° 10 - - 29.60 0 None
2017-11-24 03:00 25 19 13 77 220° 15 - - 29.59 0 None
2017-11-24 02:00 24 18 13 76 200° 12 - - 29.62 0 None
2017-11-24 01:00 23 17 11 78 210° 12 - - 29.63 0 None
2017-11-24 00:00 23 17 14 75 190° 8 - - 29.66 0 None
2017-11-23 23:00 23 16 12 71 210° 13 - - 29.68 0 None
2017-11-23 22:00 23 16 10 72 210° 15 - - 29.69 0 None
2017-11-23 21:00 23 15 13 72 180° 9 - - 29.70 0 None
2017-11-23 20:00 23 15 11 71 190° 14 - - 29.72 0 None
2017-11-23 19:00 26 15 16 62 190° 9 - - 29.73 0 None
2017-11-23 18:00 24 14 13 66 200° 10 - - 29.75 0 None
2017-11-23 17:00 23 12 12 60 200° 12 - - 29.78 0 None
2017-11-23 16:00 22 11 10 63 210° 13 - - 29.83 0 None
2017-11-23 15:00 20 10 8 65 220° 10 - - 29.87 0 None
2017-11-23 14:00 17 10 5 71 230° 10 - - 29.90 0 None
2017-11-23 13:00 13 7 0 78 240° 9 - - 29.92 0 None
2017-11-23 12:00 11 7 0 81 250° 8 - - 29.90 0 None
2017-11-23 11:00 16 10 4 77 260° 9 - - 29.92 0 None
2017-11-23 10:00 16 11 7 78 280° 7 - - 29.93 0 None
2017-11-23 09:00 19 12 9 75 290° 7 - - 29.95 0 None
2017-11-23 08:00 19 13 10 77 290° 7 - - 29.96 0 None
2017-11-23 07:00 18 13 10 77 290° 6 - - 29.97 0 None
2017-11-23 06:00 18 13 10 78 290° 6 - - 29.98 0 None

Support USWX by starting your Amazon purchase here.